Nearby METAR Reports

 

NZWN - Wellington Intl, New Zealand
Distance from station: E 67km
Updated: 21/02/2018 12:00
Clear
Clear
 Wind from NW
Wind: NW 30 km/h, Gust: 52 km/h
Temperature: 20°C
Dew Point: 12°C
Humidity: 60%
Barometer: 1001 hPa
Clouds: Clear
Visibility: 10 km
2018/02/20 23:00 NZWN 202300Z AUTO 32016G28KT 280V350 9999 NCD 20/12 Q1001 NOSIG
NZCH - Christchurch Int, New Zealand
Distance from station: SSW 269km
Updated: 21/02/2018 12:00
Mostly cloudy
Mostly cloudy
 Wind from WSW
Wind: WSW 30 km/h
Temperature: 12°C
Dew Point: 11°C
Humidity: 94%
Barometer: 1002 hPa
Clouds: Mostly cloudy
Visibility: 6 km
Cloud details: Mostly cloudy 305 m
Mostly cloudy 427 m
Mostly cloudy 1036 m
2018/02/20 23:00 NZCH 202300Z AUTO 25016KT 200V290 6000 BKN010/// BKN014/// BKN034/// 12/11 Q1002 BECMG 9999 TEMPO 5000 RA
 
NZAA - Auckland Intl Ar, New Zealand
Distance from station: N 480km
Updated: 21/02/2018 12:00
Mostly cloudy
Mostly cloudy
 Wind from W
Wind: W 26 km/h
Temperature: 21°C
Dew Point: 18°C
Humidity: 83%
Barometer: 1007 hPa
Clouds: Mostly cloudy
Visibility: 10 km
Cloud details: Few Clouds 488 m
Partly cloudy 945 m
Mostly cloudy 1158 m
2018/02/20 23:00 NZAA 202300Z AUTO 26014KT 220V290 9999 FEW016/// SCT031/// BKN038/// 21/18 Q1007 NOSIG